Hansa Rendsburg — A8CF4 — position and weather

sailwx.info

Track history (hours):
 
Tides and Currents Weather Stations Pressure Air Temp Water Temp Dewpoint Dewpoint Depression Visibility Wind Speed Wind Dir Waves Ship Positions

Hansa Rendsburg

Last reported at 2018-Apr-20 16:29 UTC. Time now 2018-Apr-20 16:46 UTC.
Position N 53°28' W 003°01'.

Type: Cargo ship. MMSI: 636090636.

Date/timePositionNaut miles runAvg speedWind from/ knotsBaromVisibWave heightAir tempDewpointWater temp
2018-Apr-20 16:29N 53°28' W 003°01'0 0.0
2018-Apr-20 15:53N 53°28' W 003°02'0 0.0
2018-Apr-20 15:23N 53°28' W 003°02'0 0.0
2018-Apr-20 14:59N 53°28' W 003°02'0 0.0
2018-Apr-20 14:29N 53°28' W 003°02'0 0.0
2018-Apr-20 13:59N 53°28' W 003°01'0 0.0
2018-Apr-20 13:29N 53°28' W 003°02'0 0.0
2018-Apr-20 12:56N 53°28' W 003°02'0 0.0
2018-Apr-20 12:26N 53°28' W 003°01'0 0.0
2018-Apr-20 11:59N 53°28' W 003°01'0 0.0
2018-Apr-20 11:29N 53°28' W 003°01'0 0.0
2018-Apr-20 10:59N 53°28' W 003°01'0 0.0
2018-Apr-20 10:23N 53°28' W 003°01'0 0.0
2018-Apr-20 09:59N 53°28' W 003°01'0 0.0
2018-Apr-20 09:29N 53°28' W 003°01'0 0.0
2018-Apr-20 08:59N 53°28' W 003°02'0 0.0
2018-Apr-20 08:29N 53°28' W 003°01'0 0.0
2018-Apr-20 07:59N 53°28' W 003°01'0 0.0
2018-Apr-20 07:26N 53°28' W 003°02'0 0.0
2018-Apr-20 06:56N 53°28' W 003°02'0 0.0
2018-Apr-20 06:29N 53°28' W 003°02'0 0.0
2018-Apr-20 05:56N 53°28' W 003°02'0 0.0
2018-Apr-20 05:29N 53°28' W 003°01'0 0.0
2018-Apr-20 04:56N 53°28' W 003°01'0 0.0
2018-Apr-20 04:29N 53°28' W 003°02'0 0.0
2018-Apr-20 03:59N 53°28' W 003°02'0 0.0
2018-Apr-20 03:29N 53°28' W 003°02'0 0.0
2018-Apr-20 02:59N 53°28' W 003°02'0 0.0
2018-Apr-20 02:29N 53°28' W 003°02'0 0.0
2018-Apr-20 01:56N 53°28' W 003°02'0 0.0
2018-Apr-20 01:29N 53°28' W 003°02'0 0.0
2018-Apr-20 00:59N 53°28' W 003°01'0 0.3
2018-Apr-20 00:31N 53°28' W 003°01'0 0.6
2018-Apr-20 00:00N 53°27' W 003°01'0 0.8
2018-Apr-19 23:30N 53°27' W 003°01'0 0.4
2018-Apr-19 23:00N 53°27' W 003°01'3 6.0
2018-Apr-19 22:30N 53°29' W 003°05'5 9.9
2018-Apr-19 22:00N 53°31' W 003°12'611.2
2018-Apr-19 21:30N 53°31' W 003°21'4 8.2
2018-Apr-19 21:00N 53°31' W 003°28'4 7.6
2018-Apr-19 20:30N 53°31' W 003°35'4 7.8
2018-Apr-19 20:00N 53°31' W 003°41'611.6
2018-Apr-19 19:30N 53°31' W 003°51'611.5
2018-Apr-19 18:58N 53°31' W 004°01'6310.4
2018-Apr-19 12:58N 52°44' W 005°11'6910.7
2018-Apr-19 06:31N 51°39' W 005°48'7 8.0
2018-Apr-19 05:39N 51°34' W 005°40'1 7.5
2018-Apr-19 05:30N 51°34' W 005°38'4 7.4
2018-Apr-19 05:01N 51°33' W 005°33'4 7.2
2018-Apr-19 04:30N 51°32' W 005°27'4 7.1
2018-Apr-19 03:59N 51°31' W 005°21'3 6.9
2018-Apr-19 03:30N 51°29' W 005°17'4 7.1
2018-Apr-19 03:01N 51°28' W 005°11'4 7.2
2018-Apr-19 02:31N 51°27' W 005°06'4 8.1
2018-Apr-19 02:00N 51°26' W 004°60'4 8.6
2018-Apr-19 01:31N 51°25' W 004°53'4 8.6
2018-Apr-19 01:00N 51°25' W 004°46'5 9.6
2018-Apr-19 00:31N 51°25' W 004°38'611.2
2018-Apr-18 23:58N 51°24' W 004°29'511.7
2018-Apr-18 23:31N 51°24' W 004°20'811.9
2018-Apr-18 22:49N 51°23' W 004°07'1012.4
2018-Apr-18 22:00N 51°22' W 003°51'911.7
2018-Apr-18 21:13N 51°22' W 003°36'10 9.4
2018-Apr-18 20:11N 51°21' W 003°20'2 8.0
2018-Apr-18 20:00N 51°21' W 003°18'510.5
2018-Apr-18 19:31N 51°22' W 003°10'712.8
2018-Apr-18 18:58N 51°26' W 003°01'612.8
2018-Apr-18 18:30N 51°28' W 002°52'510.7
2018-Apr-18 18:00N 51°30' W 002°44'0 0.9
2018-Apr-18 17:30N 51°30' W 002°43'0 0.4
2018-Apr-18 16:58N 51°30' W 002°43'0 0.0
2018-Apr-18 16:28N 51°30' W 002°43'0 0.0
2018-Apr-18 15:55N 51°30' W 002°43'0 0.0
2018-Apr-18 15:28N 51°30' W 002°43'0 0.0
2018-Apr-18 14:58N 51°30' W 002°43'0 0.0
2018-Apr-18 14:28N 51°30' W 002°43'0 0.0
2018-Apr-18 13:58N 51°30' W 002°43'0 0.0
2018-Apr-18 13:28N 51°30' W 002°43'0 0.0
2018-Apr-18 12:58N 51°30' W 002°43'0 0.0
2018-Apr-18 12:28N 51°30' W 002°43'0 0.0
2018-Apr-18 11:58N 51°30' W 002°43'0 0.0
2018-Apr-18 11:28N 51°30' W 002°43'0 0.0
2018-Apr-18 10:58N 51°30' W 002°43'0 0.0
2018-Apr-18 10:25N 51°30' W 002°43'0 0.0
2018-Apr-18 09:58N 51°30' W 002°43'0 0.0
2018-Apr-18 09:25N 51°30' W 002°43'0 0.0
2018-Apr-18 08:58N 51°30' W 002°43'0 0.0
2018-Apr-18 08:28N 51°30' W 002°43'0 0.0
2018-Apr-18 07:58N 51°30' W 002°43'0 0.0
2018-Apr-18 07:28N 51°30' W 002°43'0 0.6
2018-Apr-18 07:01N 51°30' W 002°43'0 0.3
2018-Apr-18 06:30N 51°30' W 002°44'1 1.3
2018-Apr-18 06:01N 51°31' W 002°44'5 9.6
2018-Apr-18 05:30N 51°29' W 002°51'815.2
2018-Apr-18 05:00N 51°25' W 003°02'816.8
2018-Apr-18 04:30N 51°21' W 003°14'4010.8
2018-Apr-18 00:50N 51°16' W 004°16'3 9.9
2018-Apr-18 00:30N 51°14' W 004°21'5 9.8
2018-Apr-18 00:00N 51°11' W 004°27'5 9.5
2018-Apr-17 23:30N 51°08' W 004°33'4 8.9
2018-Apr-17 23:00N 51°05' W 004°38'4 8.9
2018-Apr-17 22:30N 51°02' W 004°42'5 9.8
2018-Apr-17 22:00N 50°58' W 004°48'510.3
2018-Apr-17 21:30N 50°55' W 004°54'510.9
2018-Apr-17 21:01N 50°51' W 005°00'611.2
2018-Apr-17 20:31N 50°47' W 005°07'611.5
2018-Apr-17 20:00N 50°44' W 005°13'611.9
2018-Apr-17 19:31N 50°40' W 005°20'612.2
2018-Apr-17 19:00N 50°35' W 005°27'612.3
2018-Apr-17 18:30N 50°31' W 005°34'612.8
2018-Apr-17 18:00N 50°27' W 005°42'713.1
2018-Apr-17 17:30N 50°22' W 005°49'712.2
2018-Apr-17 16:56N 50°16' W 005°52'58 8.8
2018-Apr-17 10:22N 49°56' W 004°28'811.4
2018-Apr-17 09:40N 49°57' W 004°15'211.7
2018-Apr-17 09:30N 49°58' W 004°12'9 8.5
2018-Apr-17 08:28N 49°60' W 003°59'4 8.0
2018-Apr-17 07:58N 49°59' W 004°05'710.9
2018-Apr-17 07:22N 49°56' W 004°15'1 3.2
2018-Apr-17 07:00N 49°56' W 004°13'18 8.6
2018-Apr-17 04:53N 49°57' W 003°44'514.3
2018-Apr-17 04:30N 49°58' W 003°36'816.0
2018-Apr-17 04:00N 49°57' W 003°24'817.0
2018-Apr-17 03:31N 49°58' W 003°11'918.2
2018-Apr-17 03:01N 49°59' W 002°57'1019.2
2018-Apr-17 02:31N 50°01' W 002°42'2220.1
2018-Apr-17 01:25N 50°07' W 002°09'920.0
2018-Apr-17 00:57N 50°10' W 001°55'919.2
2018-Apr-17 00:30N 50°12' W 001°42'918.4
2018-Apr-17 00:01N 50°14' W 001°29'917.6
2018-Apr-16 23:30N 50°16' W 001°15'2215.5
2018-Apr-16 22:05N 50°23' W 000°42'114.5
2018-Apr-16 21:59N 50°23' W 000°40'714.5
2018-Apr-16 21:30N 50°25' W 000°29'814.6
2018-Apr-16 20:59N 50°28' W 000°18'715.1
2018-Apr-16 20:30N 50°30' W 000°07'815.6
2018-Apr-16 20:00N 50°31' E 000°05'816.3
2018-Apr-16 19:30N 50°33' E 000°17'917.1
2018-Apr-16 19:00N 50°36' E 000°30'918.3
2018-Apr-16 18:30N 50°41' E 000°42'918.9
2018-Apr-16 18:01N 50°46' E 000°54'1019.2
2018-Apr-16 17:30N 50°53' E 001°06'1019.0
2018-Apr-16 17:00N 50°59' E 001°17'1118.2
2018-Apr-16 16:24N 51°06' E 001°31'716.8
2018-Apr-16 16:01N 51°10' E 001°39'816.1
2018-Apr-16 15:30N 51°16' E 001°47'815.4
2018-Apr-16 15:00N 51°23' E 001°53'815.2
2018-Apr-16 14:31N 51°28' E 002°01'815.0
2018-Apr-16 14:00N 51°34' E 002°10'815.2
2018-Apr-16 13:31N 51°40' E 002°18'815.3
2018-Apr-16 13:01N 51°45' E 002°26'815.8
2018-Apr-16 12:31N 51°51' E 002°35'4316.1
2018-Apr-16 09:51N 52°03' E 003°42'617.4
2018-Apr-16 09:30N 52°03' E 003°51'5 9.8
2018-Apr-16 09:00N 52°02' E 003°59'0 0.9
2018-Apr-16 08:30N 52°02' E 003°60'5 9.2
2018-Apr-16 08:00N 51°58' E 004°04'3 5.2
2018-Apr-16 07:30N 51°57' E 003°60'0 0.2
2018-Apr-16 06:56N 51°57' E 004°00'0 0.0
2018-Apr-16 06:29N 51°57' E 004°00'0 0.0
2018-Apr-16 05:59N 51°57' E 004°00'0 0.0
2018-Apr-16 05:29N 51°57' E 004°00'0 0.0
2018-Apr-16 04:59N 51°57' E 004°00'0 0.0
2018-Apr-16 04:29N 51°57' E 004°00'0 0.0
2018-Apr-16 03:56N 51°57' E 004°00'0 0.1
2018-Apr-16 03:29N 51°57' E 004°00'0 0.0
2018-Apr-16 02:59N 51°57' E 004°00'0 0.0
2018-Apr-16 02:29N 51°57' E 004°00'0 0.0
2018-Apr-16 01:59N 51°57' E 004°00'0 0.0
2018-Apr-16 01:29N 51°57' E 004°00'0 0.0
2018-Apr-16 00:59N 51°57' E 004°00'0 0.0
2018-Apr-16 00:29N 51°57' E 004°00'0 0.0
2018-Apr-15 23:59N 51°57' E 004°00'0 0.0
2018-Apr-15 23:29N 51°57' E 004°00'0 0.0
2018-Apr-15 22:59N 51°57' E 004°00'0 0.0
2018-Apr-15 22:29N 51°57' E 004°00'0 0.0
2018-Apr-15 21:59N 51°57' E 004°00'0 0.0
2018-Apr-15 21:26N 51°57' E 004°00'0 0.1
2018-Apr-15 20:59N 51°57' E 004°00'0 0.0
2018-Apr-15 20:29N 51°57' E 004°00'0 0.0
2018-Apr-15 19:58N 51°57' E 004°00'0 0.0
2018-Apr-15 19:28N 51°57' E 004°00'0 0.8
2018-Apr-15 19:00N 51°58' E 004°00'2 4.5
2018-Apr-15 18:31N 51°58' E 004°04'1 2.8
2018-Apr-15 18:00N 51°59' E 004°04'5 9.9
2018-Apr-15 17:30N 51°57' E 004°11'510.6
2018-Apr-15 17:00N 51°54' E 004°18'4 7.2
2018-Apr-15 16:30N 51°54' E 004°24'1 2.1
2018-Apr-15 16:00N 51°53' E 004°26'0 0.0
2018-Apr-15 15:30N 51°53' E 004°26'0 0.0
2018-Apr-15 15:00N 51°53' E 004°26'0 0.0
2018-Apr-15 14:30N 51°53' E 004°26'0 0.0
2018-Apr-15 14:00N 51°53' E 004°26'0 0.0
2018-Apr-15 13:30N 51°53' E 004°26'0 0.0
2018-Apr-15 13:00N 51°53' E 004°26'0 0.0
2018-Apr-15 12:30N 51°53' E 004°26'0 0.0
2018-Apr-15 12:00N 51°53' E 004°26'0 0.0
2018-Apr-15 11:30N 51°53' E 004°26'0 0.0
2018-Apr-15 11:00N 51°53' E 004°26'0 0.0
2018-Apr-15 10:30N 51°53' E 004°26'0 0.0
2018-Apr-15 10:00N 51°53' E 004°26'0 0.0
2018-Apr-15 09:30N 51°53' E 004°26'0 0.0
2018-Apr-15 09:00N 51°53' E 004°26'0 0.0
2018-Apr-15 08:30N 51°53' E 004°26'0 0.0
2018-Apr-15 08:00N 51°53' E 004°26'0 0.0
2018-Apr-15 07:30N 51°53' E 004°26'0 0.0
2018-Apr-15 07:00N 51°53' E 004°26'0 0.0
2018-Apr-15 06:30N 51°53' E 004°26'0 0.0
2018-Apr-15 06:00N 51°53' E 004°26'0 0.0
2018-Apr-15 05:30N 51°53' E 004°26'0 0.0
2018-Apr-15 05:00N 51°53' E 004°26'0 0.0
2018-Apr-15 04:30N 51°53' E 004°26'0 0.9
2018-Apr-15 04:00N 51°54' E 004°26'0 0.8
2018-Apr-15 03:31N 51°54' E 004°26'0 0.0
2018-Apr-15 03:00N 51°54' E 004°26'0 0.0
2018-Apr-15 02:30N 51°54' E 004°26'0 0.0
2018-Apr-15 02:00N 51°54' E 004°26'0 0.0
2018-Apr-15 01:30N 51°54' E 004°26'0 0.0
2018-Apr-15 01:00N 51°54' E 004°26'0 0.0
2018-Apr-15 00:30N 51°54' E 004°26'0 0.0
2018-Apr-15 00:00N 51°54' E 004°26'0 0.0
2018-Apr-14 23:30N 51°54' E 004°26'0 0.0
2018-Apr-14 23:00N 51°54' E 004°26'0 0.0
2018-Apr-14 22:30N 51°54' E 004°26'0 0.0
2018-Apr-14 22:00N 51°54' E 004°26'0 0.0
2018-Apr-14 21:30N 51°54' E 004°26'0 0.0
2018-Apr-14 21:00N 51°54' E 004°26'0 0.0
2018-Apr-14 20:30N 51°54' E 004°26'0 0.0
2018-Apr-14 20:00N 51°54' E 004°26'0 0.0
2018-Apr-14 19:30N 51°54' E 004°26'0 0.0
2018-Apr-14 19:00N 51°54' E 004°26'0 0.0
2018-Apr-14 18:30N 51°54' E 004°26'0 0.0
2018-Apr-14 17:59N 51°54' E 004°26'0 0.0
2018-Apr-14 17:29N 51°54' E 004°26'0 0.0
2018-Apr-14 17:00N 51°54' E 004°26'0 0.0
2018-Apr-14 16:29N 51°54' E 004°26'0 0.0
2018-Apr-14 15:59N 51°54' E 004°26'0 0.0
2018-Apr-14 15:29N 51°54' E 004°26'0 0.0
2018-Apr-14 14:59N 51°54' E 004°26'0 0.0
2018-Apr-14 14:29N 51°54' E 004°26'0 0.0
2018-Apr-14 13:59N 51°54' E 004°26'0 0.0
2018-Apr-14 13:29N 51°54' E 004°26'0 0.0
2018-Apr-14 12:59N 51°54' E 004°26'0 0.0
2018-Apr-14 12:28N 51°54' E 004°26'0 0.0
2018-Apr-14 11:58N 51°54' E 004°26'0 0.0
2018-Apr-14 11:28N 51°54' E 004°26'0 0.0
2018-Apr-14 10:58N 51°54' E 004°26'0 0.0
2018-Apr-14 10:28N 51°54' E 004°26'0 0.0
2018-Apr-14 09:58N 51°54' E 004°26'0 0.0
2018-Apr-14 09:28N 51°54' E 004°26'0 0.0
2018-Apr-14 08:58N 51°54' E 004°26'0 0.0
2018-Apr-14 08:28N 51°54' E 004°26'0 0.0
2018-Apr-14 07:58N 51°54' E 004°26'0 0.0
2018-Apr-14 07:28N 51°54' E 004°26'0 0.0
2018-Apr-14 06:58N 51°54' E 004°26'0 0.0
2018-Apr-14 06:28N 51°54' E 004°26'0 0.0
2018-Apr-14 05:59N 51°54' E 004°26'0 0.0
2018-Apr-14 05:29N 51°54' E 004°26'0 0.0
2018-Apr-14 04:59N 51°54' E 004°26'0 0.0
2018-Apr-14 04:29N 51°54' E 004°26'0 0.0
2018-Apr-14 03:59N 51°54' E 004°26'0 0.0
2018-Apr-14 03:29N 51°54' E 004°26'0 0.0
2018-Apr-14 02:59N 51°54' E 004°26'0 0.0
2018-Apr-14 02:29N 51°54' E 004°26'0 0.0
2018-Apr-14 01:59N 51°54' E 004°26'0 0.0
2018-Apr-14 01:29N 51°54' E 004°26'0 0.0
2018-Apr-14 00:59N 51°54' E 004°26'0 0.0
2018-Apr-14 00:29N 51°54' E 004°26'0 0.0
2018-Apr-13 23:59N 51°54' E 004°26'0 0.0
2018-Apr-13 23:29N 51°54' E 004°26'0 0.0
2018-Apr-13 22:59N 51°54' E 004°26'0 0.0
2018-Apr-13 22:29N 51°54' E 004°26'0 0.0
2018-Apr-13 21:59N 51°54' E 004°26'0 0.0
2018-Apr-13 21:29N 51°54' E 004°26'0 0.0
2018-Apr-13 20:59N 51°54' E 004°26'0 0.0
2018-Apr-13 20:29N 51°54' E 004°26'0 0.0
2018-Apr-13 19:59N 51°54' E 004°26'0 0.0
2018-Apr-13 19:29N 51°54' E 004°26'0 0.0
2018-Apr-13 18:59N 51°54' E 004°26'0 0.0
2018-Apr-13 18:29N 51°54' E 004°26'0 0.0
2018-Apr-13 17:59N 51°54' E 004°26'0 0.0
2018-Apr-13 17:30N 51°54' E 004°26'0 0.6
2018-Apr-13 17:00N 51°54' E 004°26'3 5.8
2018-Apr-13 16:30N 51°54' E 004°21'4 8.6
2018-Apr-13 16:00N 51°55' E 004°15'510.7
2018-Apr-13 15:30N 51°58' E 004°08'3 5.6
2018-Apr-13 15:01N 51°59' E 004°04'2 3.6
2018-Apr-13 14:30N 51°57' E 004°03'0 0.0
2018-Apr-13 13:59N 51°57' E 004°03'0 0.0
2018-Apr-13 13:29N 51°57' E 004°03'0 0.0
2018-Apr-13 12:59N 51°57' E 004°03'0 0.0
2018-Apr-13 12:29N 51°57' E 004°03'0 0.0
2018-Apr-13 11:59N 51°57' E 004°03'0 0.0
2018-Apr-13 11:29N 51°57' E 004°03'0 0.0
2018-Apr-13 10:59N 51°57' E 004°03'0 0.0
2018-Apr-13 10:29N 51°57' E 004°03'0 0.0
2018-Apr-13 09:59N 51°57' E 004°03'0 0.0
2018-Apr-13 09:29N 51°57' E 004°03'0 0.0
2018-Apr-13 08:59N 51°57' E 004°03'0 0.0
2018-Apr-13 08:29N 51°57' E 004°03'0 0.0
2018-Apr-13 07:59N 51°57' E 004°03'0 0.0
2018-Apr-13 07:29N 51°57' E 004°03'0 0.0
2018-Apr-13 06:59N 51°57' E 004°03'0 0.0
2018-Apr-13 06:29N 51°57' E 004°03'0 0.0
2018-Apr-13 05:59N 51°57' E 004°03'0 0.0
2018-Apr-13 05:29N 51°57' E 004°03'0 0.0
2018-Apr-13 04:59N 51°57' E 004°03'0 0.0
2018-Apr-13 04:29N 51°57' E 004°03'0 0.0
2018-Apr-13 03:59N 51°57' E 004°03'0 0.0
2018-Apr-13 03:29N 51°57' E 004°03'0 0.0
2018-Apr-13 02:59N 51°57' E 004°03'0 0.0
2018-Apr-13 02:29N 51°57' E 004°03'0 0.0
2018-Apr-13 01:59N 51°57' E 004°03'0 0.0
2018-Apr-13 01:29N 51°57' E 004°03'0 0.0
2018-Apr-13 00:59N 51°57' E 004°03'0 0.0
2018-Apr-13 00:29N 51°57' E 004°03'0 0.0
2018-Apr-12 23:59N 51°57' E 004°03'0 0.0
2018-Apr-12 23:29N 51°57' E 004°03'0 0.0
2018-Apr-12 22:59N 51°57' E 004°03'0 0.0
2018-Apr-12 22:29N 51°57' E 004°03'0 0.0
2018-Apr-12 21:53N 51°57' E 004°03'0 0.0
2018-Apr-12 21:30N 51°57' E 004°03'1 1.5
2018-Apr-12 21:01N 51°58' E 004°04'1 2.7
2018-Apr-12 20:31N 51°59' E 004°04'611.6
2018-Apr-12 20:00N 51°60' E 003°54'5 9.8
2018-Apr-12 19:30N 51°60' E 003°46'4 8.2
2018-Apr-12 19:00N 51°58' E 003°40'5515.0
2018-Apr-12 15:21N 51°34' E 002°21'616.8
2018-Apr-12 15:00N 51°30' E 002°14'817.0
2018-Apr-12 14:30N 51°24' E 002°05'917.1
2018-Apr-12 14:01N 51°18' E 001°56'917.2
2018-Apr-12 13:30N 51°11' E 001°46'917.5
2018-Apr-12 13:01N 51°04' E 001°39'918.1
2018-Apr-12 12:31N 50°56' E 001°32'1618.2
2018-Apr-12 11:38N 50°42' E 001°20'317.6
2018-Apr-12 11:29N 50°40' E 001°17'4817.2
2018-Apr-12 08:42N 50°19' E 000°10'417.8
2018-Apr-12 08:30N 50°18' E 000°04'918.0
2018-Apr-12 08:00N 50°18' W 000°10'918.4
2018-Apr-12 07:30N 50°16' W 000°24'918.7
2018-Apr-12 07:01N 50°13' W 000°38'919.0
2018-Apr-12 06:30N 50°11' W 000°52'1019.3
2018-Apr-12 06:00N 50°08' W 001°06'1019.4
2018-Apr-12 05:31N 50°06' W 001°21'1019.2
2018-Apr-12 05:01N 50°03' W 001°35'1019.2
2018-Apr-12 04:30N 50°00' W 001°50'1018.8
2018-Apr-12 03:59N 49°58' W 002°05'2217.6
2018-Apr-12 02:43N 49°52' W 002°38'617.0
2018-Apr-12 02:23N 49°51' W 002°46'1416.5
2018-Apr-12 01:33N 49°50' W 003°08'116.4
2018-Apr-12 01:30N 49°50' W 003°09'816.4
2018-Apr-12 01:00N 49°50' W 003°22'916.2
2018-Apr-12 00:27N 49°51' W 003°36'716.0
2018-Apr-12 00:00N 49°51' W 003°47'2315.8
2018-Apr-11 22:32N 49°51' W 004°23'015.7
2018-Apr-11 22:30N 49°51' W 004°23'7113.3
2018-Apr-11 17:12N 50°23' W 006°02'10918.0
2018-Apr-11 11:10N 52°11' W 005°49'519.5
2018-Apr-11 10:53N 52°17' W 005°48'719.5
2018-Apr-11 10:31N 52°24' W 005°49'2319.6
2018-Apr-11 09:20N 52°47' W 005°50'719.3
2018-Apr-11 08:59N 52°54' W 005°52'919.0
2018-Apr-11 08:30N 53°03' W 005°54'918.5
2018-Apr-11 08:00N 53°11' W 005°59'816.2
2018-Apr-11 07:29N 53°19' W 006°04'4 8.6
2018-Apr-11 07:00N 53°21' W 006°11'1 2.2
2018-Apr-11 06:30N 53°21' W 006°12'0 0.0
2018-Apr-11 05:53N 53°21' W 006°12'0 0.0
2018-Apr-11 05:20N 53°21' W 006°13'0 0.0
2018-Apr-11 04:47N 53°21' W 006°12'0 0.0
2018-Apr-11 04:11N 53°21' W 006°13'0 0.0
2018-Apr-11 03:44N 53°21' W 006°12'0 0.0
2018-Apr-11 03:29N 53°21' W 006°12'0 0.0
2018-Apr-11 02:59N 53°21' W 006°13'0 0.0
2018-Apr-11 02:29N 53°21' W 006°12'0 0.0
2018-Apr-11 01:56N 53°21' W 006°12'0 0.0
2018-Apr-11 01:29N 53°21' W 006°12'0 0.0
2018-Apr-11 00:56N 53°21' W 006°13'0 0.0
2018-Apr-11 00:20N 53°21' W 006°12'0 0.0
2018-Apr-10 23:50N 53°21' W 006°12'0 0.0
2018-Apr-10 23:17N 53°21' W 006°13'0 0.0
2018-Apr-10 22:41N 53°21' W 006°12'0 0.0
2018-Apr-10 22:29N 53°21' W 006°12'0 0.0
2018-Apr-10 21:56N 53°21' W 006°12'0 0.0
2018-Apr-10 21:29N 53°21' W 006°12'0 0.0
2018-Apr-10 20:56N 53°21' W 006°12'0 0.0
2018-Apr-10 20:26N 53°21' W 006°12'0 0.0
2018-Apr-10 19:53N 53°21' W 006°12'0 0.0
2018-Apr-10 19:20N 53°21' W 006°13'0 0.0
2018-Apr-10 18:44N 53°21' W 006°12'0 0.0
2018-Apr-10 18:10N 53°21' W 006°13'0 0.0
2018-Apr-10 17:58N 53°21' W 006°12'0 0.0
2018-Apr-10 17:28N 53°21' W 006°13'0 0.0
2018-Apr-10 16:58N 53°21' W 006°12'  
Track history (hours):
 
Tides and Currents Weather Stations Pressure Air Temp Water Temp Dewpoint Dewpoint Depression Visibility Wind Speed Wind Dir Waves Ship Positions

Hansa Rendsburg

Last reported at 2018-Apr-20 16:29 UTC. Time now 2018-Apr-20 16:46 UTC.
Position N 53°28' W 003°01'.

Type: Cargo ship. MMSI: 636090636.

Date/timePositionNaut miles runAvg speedWind from/ knotsBaromVisibWave heightAir tempDewpointWater temp
2018-Apr-20 16:29N 53°28' W 003°01'0 0.0
2018-Apr-20 15:53N 53°28' W 003°02'0 0.0
2018-Apr-20 15:23N 53°28' W 003°02'0 0.0
2018-Apr-20 14:59N 53°28' W 003°02'0 0.0
2018-Apr-20 14:29N 53°28' W 003°02'0 0.0
2018-Apr-20 13:59N 53°28' W 003°01'0 0.0
2018-Apr-20 13:29N 53°28' W 003°02'0 0.0
2018-Apr-20 12:56N 53°28' W 003°02'0 0.0
2018-Apr-20 12:26N 53°28' W 003°01'0 0.0
2018-Apr-20 11:59N 53°28' W 003°01'0 0.0
2018-Apr-20 11:29N 53°28' W 003°01'0 0.0
2018-Apr-20 10:59N 53°28' W 003°01'0 0.0
2018-Apr-20 10:23N 53°28' W 003°01'0 0.0
2018-Apr-20 09:59N 53°28' W 003°01'0 0.0
2018-Apr-20 09:29N 53°28' W 003°01'0 0.0
2018-Apr-20 08:59N 53°28' W 003°02'0 0.0
2018-Apr-20 08:29N 53°28' W 003°01'0 0.0
2018-Apr-20 07:59N 53°28' W 003°01'0 0.0
2018-Apr-20 07:26N 53°28' W 003°02'0 0.0
2018-Apr-20 06:56N 53°28' W 003°02'0 0.0
2018-Apr-20 06:29N 53°28' W 003°02'0 0.0
2018-Apr-20 05:56N 53°28' W 003°02'0 0.0
2018-Apr-20 05:29N 53°28' W 003°01'0 0.0
2018-Apr-20 04:56N 53°28' W 003°01'0 0.0
2018-Apr-20 04:29N 53°28' W 003°02'0 0.0
2018-Apr-20 03:59N 53°28' W 003°02'0 0.0
2018-Apr-20 03:29N 53°28' W 003°02'0 0.0
2018-Apr-20 02:59N 53°28' W 003°02'0 0.0
2018-Apr-20 02:29N 53°28' W 003°02'0 0.0
2018-Apr-20 01:56N 53°28' W 003°02'0 0.0
2018-Apr-20 01:29N 53°28' W 003°02'0 0.0
2018-Apr-20 00:59N 53°28' W 003°01'0 0.3
2018-Apr-20 00:31N 53°28' W 003°01'0 0.6
2018-Apr-20 00:00N 53°27' W 003°01'0 0.8
2018-Apr-19 23:30N 53°27' W 003°01'0 0.4
2018-Apr-19 23:00N 53°27' W 003°01'3 6.0
2018-Apr-19 22:30N 53°29' W 003°05'5 9.9
2018-Apr-19 22:00N 53°31' W 003°12'611.2
2018-Apr-19 21:30N 53°31' W 003°21'4 8.2
2018-Apr-19 21:00N 53°31' W 003°28'4 7.6
2018-Apr-19 20:30N 53°31' W 003°35'4 7.8
2018-Apr-19 20:00N 53°31' W 003°41'611.6
2018-Apr-19 19:30N 53°31' W 003°51'611.5
2018-Apr-19 18:58N 53°31' W 004°01'6310.4
2018-Apr-19 12:58N 52°44' W 005°11'6910.7
2018-Apr-19 06:31N 51°39' W 005°48'7 8.0
2018-Apr-19 05:39N 51°34' W 005°40'1 7.5
2018-Apr-19 05:30N 51°34' W 005°38'4 7.4
2018-Apr-19 05:01N 51°33' W 005°33'4 7.2
2018-Apr-19 04:30N 51°32' W 005°27'4 7.1
2018-Apr-19 03:59N 51°31' W 005°21'3 6.9
2018-Apr-19 03:30N 51°29' W 005°17'4 7.1
2018-Apr-19 03:01N 51°28' W 005°11'4 7.2
2018-Apr-19 02:31N 51°27' W 005°06'4 8.1
2018-Apr-19 02:00N 51°26' W 004°60'4 8.6
2018-Apr-19 01:31N 51°25' W 004°53'4 8.6
2018-Apr-19 01:00N 51°25' W 004°46'5 9.6
2018-Apr-19 00:31N 51°25' W 004°38'611.2
2018-Apr-18 23:58N 51°24' W 004°29'511.7
2018-Apr-18 23:31N 51°24' W 004°20'811.9
2018-Apr-18 22:49N 51°23' W 004°07'1012.4
2018-Apr-18 22:00N 51°22' W 003°51'911.7
2018-Apr-18 21:13N 51°22' W 003°36'10 9.4
2018-Apr-18 20:11N 51°21' W 003°20'2 8.0
2018-Apr-18 20:00N 51°21' W 003°18'510.5
2018-Apr-18 19:31N 51°22' W 003°10'712.8
2018-Apr-18 18:58N 51°26' W 003°01'612.8
2018-Apr-18 18:30N 51°28' W 002°52'510.7
2018-Apr-18 18:00N 51°30' W 002°44'0 0.9
2018-Apr-18 17:30N 51°30' W 002°43'0 0.4
2018-Apr-18 16:58N 51°30' W 002°43'0 0.0
2018-Apr-18 16:28N 51°30' W 002°43'0 0.0
2018-Apr-18 15:55N 51°30' W 002°43'0 0.0
2018-Apr-18 15:28N 51°30' W 002°43'0 0.0
2018-Apr-18 14:58N 51°30' W 002°43'0 0.0
2018-Apr-18 14:28N 51°30' W 002°43'0 0.0
2018-Apr-18 13:58N 51°30' W 002°43'0 0.0
2018-Apr-18 13:28N 51°30' W 002°43'0 0.0
2018-Apr-18 12:58N 51°30' W 002°43'0 0.0
2018-Apr-18 12:28N 51°30' W 002°43'0 0.0
2018-Apr-18 11:58N 51°30' W 002°43'0 0.0
2018-Apr-18 11:28N 51°30' W 002°43'0 0.0
2018-Apr-18 10:58N 51°30' W 002°43'0 0.0
2018-Apr-18 10:25N 51°30' W 002°43'0 0.0
2018-Apr-18 09:58N 51°30' W 002°43'0 0.0
2018-Apr-18 09:25N 51°30' W 002°43'0 0.0
2018-Apr-18 08:58N 51°30' W 002°43'0 0.0
2018-Apr-18 08:28N 51°30' W 002°43'0 0.0
2018-Apr-18 07:58N 51°30' W 002°43'0 0.0
2018-Apr-18 07:28N 51°30' W 002°43'0 0.6
2018-Apr-18 07:01N 51°30' W 002°43'0 0.3
2018-Apr-18 06:30N 51°30' W 002°44'1 1.3
2018-Apr-18 06:01N 51°31' W 002°44'5 9.6
2018-Apr-18 05:30N 51°29' W 002°51'815.2
2018-Apr-18 05:00N 51°25' W 003°02'816.8
2018-Apr-18 04:30N 51°21' W 003°14'4010.8
2018-Apr-18 00:50N 51°16' W 004°16'3 9.9
2018-Apr-18 00:30N 51°14' W 004°21'5 9.8
2018-Apr-18 00:00N 51°11' W 004°27'5 9.5
2018-Apr-17 23:30N 51°08' W 004°33'4 8.9
2018-Apr-17 23:00N 51°05' W 004°38'4 8.9
2018-Apr-17 22:30N 51°02' W 004°42'5 9.8
2018-Apr-17 22:00N 50°58' W 004°48'510.3
2018-Apr-17 21:30N 50°55' W 004°54'510.9
2018-Apr-17 21:01N 50°51' W 005°00'611.2
2018-Apr-17 20:31N 50°47' W 005°07'611.5
2018-Apr-17 20:00N 50°44' W 005°13'611.9
2018-Apr-17 19:31N 50°40' W 005°20'612.2
2018-Apr-17 19:00N 50°35' W 005°27'612.3
2018-Apr-17 18:30N 50°31' W 005°34'612.8
2018-Apr-17 18:00N 50°27' W 005°42'713.1
2018-Apr-17 17:30N 50°22' W 005°49'712.2
2018-Apr-17 16:56N 50°16' W 005°52'58 8.8
2018-Apr-17 10:22N 49°56' W 004°28'811.4
2018-Apr-17 09:40N 49°57' W 004°15'211.7
2018-Apr-17 09:30N 49°58' W 004°12'9 8.5
2018-Apr-17 08:28N 49°60' W 003°59'4 8.0
2018-Apr-17 07:58N 49°59' W 004°05'710.9
2018-Apr-17 07:22N 49°56' W 004°15'1 3.2
2018-Apr-17 07:00N 49°56' W 004°13'18 8.6
2018-Apr-17 04:53N 49°57' W 003°44'514.3
2018-Apr-17 04:30N 49°58' W 003°36'816.0
2018-Apr-17 04:00N 49°57' W 003°24'817.0
2018-Apr-17 03:31N 49°58' W 003°11'918.2
2018-Apr-17 03:01N 49°59' W 002°57'1019.2
2018-Apr-17 02:31N 50°01' W 002°42'2220.1
2018-Apr-17 01:25N 50°07' W 002°09'920.0
2018-Apr-17 00:57N 50°10' W 001°55'919.2
2018-Apr-17 00:30N 50°12' W 001°42'918.4
2018-Apr-17 00:01N 50°14' W 001°29'917.6
2018-Apr-16 23:30N 50°16' W 001°15'2215.5
2018-Apr-16 22:05N 50°23' W 000°42'114.5
2018-Apr-16 21:59N 50°23' W 000°40'714.5
2018-Apr-16 21:30N 50°25' W 000°29'814.6
2018-Apr-16 20:59N 50°28' W 000°18'715.1
2018-Apr-16 20:30N 50°30' W 000°07'815.6
2018-Apr-16 20:00N 50°31' E 000°05'816.3
2018-Apr-16 19:30N 50°33' E 000°17'917.1
2018-Apr-16 19:00N 50°36' E 000°30'918.3
2018-Apr-16 18:30N 50°41' E 000°42'918.9
2018-Apr-16 18:01N 50°46' E 000°54'1019.2
2018-Apr-16 17:30N 50°53' E 001°06'1019.0
2018-Apr-16 17:00N 50°59' E 001°17'1118.2
2018-Apr-16 16:24N 51°06' E 001°31'716.8
2018-Apr-16 16:01N 51°10' E 001°39'816.1
2018-Apr-16 15:30N 51°16' E 001°47'815.4
2018-Apr-16 15:00N 51°23' E 001°53'815.2
2018-Apr-16 14:31N 51°28' E 002°01'815.0
2018-Apr-16 14:00N 51°34' E 002°10'815.2
2018-Apr-16 13:31N 51°40' E 002°18'815.3
2018-Apr-16 13:01N 51°45' E 002°26'815.8
2018-Apr-16 12:31N 51°51' E 002°35'4316.1
2018-Apr-16 09:51N 52°03' E 003°42'617.4
2018-Apr-16 09:30N 52°03' E 003°51'5 9.8
2018-Apr-16 09:00N 52°02' E 003°59'0 0.9
2018-Apr-16 08:30N 52°02' E 003°60'5 9.2
2018-Apr-16 08:00N 51°58' E 004°04'3 5.2
2018-Apr-16 07:30N 51°57' E 003°60'0 0.2
2018-Apr-16 06:56N 51°57' E 004°00'0 0.0
2018-Apr-16 06:29N 51°57' E 004°00'0 0.0
2018-Apr-16 05:59N 51°57' E 004°00'0 0.0
2018-Apr-16 05:29N 51°57' E 004°00'0 0.0
2018-Apr-16 04:59N 51°57' E 004°00'0 0.0
2018-Apr-16 04:29N 51°57' E 004°00'0 0.0
2018-Apr-16 03:56N 51°57' E 004°00'0 0.1
2018-Apr-16 03:29N 51°57' E 004°00'0 0.0
2018-Apr-16 02:59N 51°57' E 004°00'0 0.0
2018-Apr-16 02:29N 51°57' E 004°00'0 0.0
2018-Apr-16 01:59N 51°57' E 004°00'0 0.0
2018-Apr-16 01:29N 51°57' E 004°00'0 0.0
2018-Apr-16 00:59N 51°57' E 004°00'0 0.0
2018-Apr-16 00:29N 51°57' E 004°00'0 0.0
2018-Apr-15 23:59N 51°57' E 004°00'0 0.0
2018-Apr-15 23:29N 51°57' E 004°00'0 0.0
2018-Apr-15 22:59N 51°57' E 004°00'0 0.0
2018-Apr-15 22:29N 51°57' E 004°00'0 0.0
2018-Apr-15 21:59N 51°57' E 004°00'0 0.0
2018-Apr-15 21:26N 51°57' E 004°00'0 0.1
2018-Apr-15 20:59N 51°57' E 004°00'0 0.0
2018-Apr-15 20:29N 51°57' E 004°00'0 0.0
2018-Apr-15 19:58N 51°57' E 004°00'0 0.0
2018-Apr-15 19:28N 51°57' E 004°00'0 0.8
2018-Apr-15 19:00N 51°58' E 004°00'2 4.5
2018-Apr-15 18:31N 51°58' E 004°04'1 2.8
2018-Apr-15 18:00N 51°59' E 004°04'5 9.9
2018-Apr-15 17:30N 51°57' E 004°11'510.6
2018-Apr-15 17:00N 51°54' E 004°18'4 7.2
2018-Apr-15 16:30N 51°54' E 004°24'1 2.1
2018-Apr-15 16:00N 51°53' E 004°26'0 0.0
2018-Apr-15 15:30N 51°53' E 004°26'0 0.0
2018-Apr-15 15:00N 51°53' E 004°26'0 0.0
2018-Apr-15 14:30N 51°53' E 004°26'0 0.0
2018-Apr-15 14:00N 51°53' E 004°26'0 0.0
2018-Apr-15 13:30N 51°53' E 004°26'0 0.0
2018-Apr-15 13:00N 51°53' E 004°26'0 0.0
2018-Apr-15 12:30N 51°53' E 004°26'0 0.0
2018-Apr-15 12:00N 51°53' E 004°26'0 0.0
2018-Apr-15 11:30N 51°53' E 004°26'0 0.0
2018-Apr-15 11:00N 51°53' E 004°26'0 0.0
2018-Apr-15 10:30N 51°53' E 004°26'0 0.0
2018-Apr-15 10:00N 51°53' E 004°26'0 0.0
2018-Apr-15 09:30N 51°53' E 004°26'0 0.0
2018-Apr-15 09:00N 51°53' E 004°26'0 0.0
2018-Apr-15 08:30N 51°53' E 004°26'0 0.0
2018-Apr-15 08:00N 51°53' E 004°26'0 0.0
2018-Apr-15 07:30N 51°53' E 004°26'0 0.0
2018-Apr-15 07:00N 51°53' E 004°26'0 0.0
2018-Apr-15 06:30N 51°53' E 004°26'0 0.0
2018-Apr-15 06:00N 51°53' E 004°26'0 0.0
2018-Apr-15 05:30N 51°53' E 004°26'0 0.0
2018-Apr-15 05:00N 51°53' E 004°26'0 0.0
2018-Apr-15 04:30N 51°53' E 004°26'0 0.9
2018-Apr-15 04:00N 51°54' E 004°26'0 0.8
2018-Apr-15 03:31N 51°54' E 004°26'0 0.0
2018-Apr-15 03:00N 51°54' E 004°26'0 0.0
2018-Apr-15 02:30N 51°54' E 004°26'0 0.0
2018-Apr-15 02:00N 51°54' E 004°26'0 0.0
2018-Apr-15 01:30N 51°54' E 004°26'0 0.0
2018-Apr-15 01:00N 51°54' E 004°26'0 0.0
2018-Apr-15 00:30N 51°54' E 004°26'0 0.0
2018-Apr-15 00:00N 51°54' E 004°26'0 0.0
2018-Apr-14 23:30N 51°54' E 004°26'0 0.0
2018-Apr-14 23:00N 51°54' E 004°26'0 0.0
2018-Apr-14 22:30N 51°54' E 004°26'0 0.0
2018-Apr-14 22:00N 51°54' E 004°26'0 0.0
2018-Apr-14 21:30N 51°54' E 004°26'0 0.0
2018-Apr-14 21:00N 51°54' E 004°26'0 0.0
2018-Apr-14 20:30N 51°54' E 004°26'0 0.0
2018-Apr-14 20:00N 51°54' E 004°26'0 0.0
2018-Apr-14 19:30N 51°54' E 004°26'0 0.0
2018-Apr-14 19:00N 51°54' E 004°26'0 0.0
2018-Apr-14 18:30N 51°54' E 004°26'0 0.0
2018-Apr-14 17:59N 51°54' E 004°26'0 0.0
2018-Apr-14 17:29N 51°54' E 004°26'0 0.0
2018-Apr-14 17:00N 51°54' E 004°26'0 0.0
2018-Apr-14 16:29N 51°54' E 004°26'0 0.0
2018-Apr-14 15:59N 51°54' E 004°26'0 0.0
2018-Apr-14 15:29N 51°54' E 004°26'0 0.0
2018-Apr-14 14:59N 51°54' E 004°26'0 0.0
2018-Apr-14 14:29N 51°54' E 004°26'0 0.0
2018-Apr-14 13:59N 51°54' E 004°26'0 0.0
2018-Apr-14 13:29N 51°54' E 004°26'0 0.0
2018-Apr-14 12:59N 51°54' E 004°26'0 0.0
2018-Apr-14 12:28N 51°54' E 004°26'0 0.0
2018-Apr-14 11:58N 51°54' E 004°26'0 0.0
2018-Apr-14 11:28N 51°54' E 004°26'0 0.0
2018-Apr-14 10:58N 51°54' E 004°26'0 0.0
2018-Apr-14 10:28N 51°54' E 004°26'0 0.0
2018-Apr-14 09:58N 51°54' E 004°26'0 0.0
2018-Apr-14 09:28N 51°54' E 004°26'0 0.0
2018-Apr-14 08:58N 51°54' E 004°26'0 0.0
2018-Apr-14 08:28N 51°54' E 004°26'0 0.0
2018-Apr-14 07:58N 51°54' E 004°26'0 0.0
2018-Apr-14 07:28N 51°54' E 004°26'0 0.0
2018-Apr-14 06:58N 51°54' E 004°26'0 0.0
2018-Apr-14 06:28N 51°54' E 004°26'0 0.0
2018-Apr-14 05:59N 51°54' E 004°26'0 0.0
2018-Apr-14 05:29N 51°54' E 004°26'0 0.0
2018-Apr-14 04:59N 51°54' E 004°26'0 0.0
2018-Apr-14 04:29N 51°54' E 004°26'0 0.0
2018-Apr-14 03:59N 51°54' E 004°26'0 0.0
2018-Apr-14 03:29N 51°54' E 004°26'0 0.0
2018-Apr-14 02:59N 51°54' E 004°26'0 0.0
2018-Apr-14 02:29N 51°54' E 004°26'0 0.0
2018-Apr-14 01:59N 51°54' E 004°26'0 0.0
2018-Apr-14 01:29N 51°54' E 004°26'0 0.0
2018-Apr-14 00:59N 51°54' E 004°26'0 0.0
2018-Apr-14 00:29N 51°54' E 004°26'0 0.0
2018-Apr-13 23:59N 51°54' E 004°26'0 0.0
2018-Apr-13 23:29N 51°54' E 004°26'0 0.0
2018-Apr-13 22:59N 51°54' E 004°26'0 0.0
2018-Apr-13 22:29N 51°54' E 004°26'0 0.0
2018-Apr-13 21:59N 51°54' E 004°26'0 0.0
2018-Apr-13 21:29N 51°54' E 004°26'0 0.0
2018-Apr-13 20:59N 51°54' E 004°26'0 0.0
2018-Apr-13 20:29N 51°54' E 004°26'0 0.0
2018-Apr-13 19:59N 51°54' E 004°26'0 0.0
2018-Apr-13 19:29N 51°54' E 004°26'0 0.0
2018-Apr-13 18:59N 51°54' E 004°26'0 0.0
2018-Apr-13 18:29N 51°54' E 004°26'0 0.0
2018-Apr-13 17:59N 51°54' E 004°26'0 0.0
2018-Apr-13 17:30N 51°54' E 004°26'0 0.6
2018-Apr-13 17:00N 51°54' E 004°26'3 5.8
2018-Apr-13 16:30N 51°54' E 004°21'4 8.6
2018-Apr-13 16:00N 51°55' E 004°15'510.7
2018-Apr-13 15:30N 51°58' E 004°08'3 5.6
2018-Apr-13 15:01N 51°59' E 004°04'2 3.6
2018-Apr-13 14:30N 51°57' E 004°03'0 0.0
2018-Apr-13 13:59N 51°57' E 004°03'0 0.0
2018-Apr-13 13:29N 51°57' E 004°03'0 0.0
2018-Apr-13 12:59N 51°57' E 004°03'0 0.0
2018-Apr-13 12:29N 51°57' E 004°03'0 0.0
2018-Apr-13 11:59N 51°57' E 004°03'0 0.0
2018-Apr-13 11:29N 51°57' E 004°03'0 0.0
2018-Apr-13 10:59N 51°57' E 004°03'0 0.0
2018-Apr-13 10:29N 51°57' E 004°03'0 0.0
2018-Apr-13 09:59N 51°57' E 004°03'0 0.0
2018-Apr-13 09:29N 51°57' E 004°03'0 0.0
2018-Apr-13 08:59N 51°57' E 004°03'0 0.0
2018-Apr-13 08:29N 51°57' E 004°03'0 0.0
2018-Apr-13 07:59N 51°57' E 004°03'0 0.0
2018-Apr-13 07:29N 51°57' E 004°03'0 0.0
2018-Apr-13 06:59N 51°57' E 004°03'0 0.0
2018-Apr-13 06:29N 51°57' E 004°03'0 0.0
2018-Apr-13 05:59N 51°57' E 004°03'0 0.0
2018-Apr-13 05:29N 51°57' E 004°03'0 0.0
2018-Apr-13 04:59N 51°57' E 004°03'0 0.0
2018-Apr-13 04:29N 51°57' E 004°03'0 0.0
2018-Apr-13 03:59N 51°57' E 004°03'0 0.0
2018-Apr-13 03:29N 51°57' E 004°03'0 0.0
2018-Apr-13 02:59N 51°57' E 004°03'0 0.0
2018-Apr-13 02:29N 51°57' E 004°03'0 0.0
2018-Apr-13 01:59N 51°57' E 004°03'0 0.0
2018-Apr-13 01:29N 51°57' E 004°03'0 0.0
2018-Apr-13 00:59N 51°57' E 004°03'0 0.0
2018-Apr-13 00:29N 51°57' E 004°03'0 0.0
2018-Apr-12 23:59N 51°57' E 004°03'0 0.0
2018-Apr-12 23:29N 51°57' E 004°03'0 0.0
2018-Apr-12 22:59N 51°57' E 004°03'0 0.0
2018-Apr-12 22:29N 51°57' E 004°03'0 0.0
2018-Apr-12 21:53N 51°57' E 004°03'0 0.0
2018-Apr-12 21:30N 51°57' E 004°03'1 1.5
2018-Apr-12 21:01N 51°58' E 004°04'1 2.7
2018-Apr-12 20:31N 51°59' E 004°04'611.6
2018-Apr-12 20:00N 51°60' E 003°54'5 9.8
2018-Apr-12 19:30N 51°60' E 003°46'4 8.2
2018-Apr-12 19:00N 51°58' E 003°40'5515.0
2018-Apr-12 15:21N 51°34' E 002°21'616.8
2018-Apr-12 15:00N 51°30' E 002°14'817.0
2018-Apr-12 14:30N 51°24' E 002°05'917.1
2018-Apr-12 14:01N 51°18' E 001°56'917.2
2018-Apr-12 13:30N 51°11' E 001°46'917.5
2018-Apr-12 13:01N 51°04' E 001°39'918.1
2018-Apr-12 12:31N 50°56' E 001°32'1618.2
2018-Apr-12 11:38N 50°42' E 001°20'317.6
2018-Apr-12 11:29N 50°40' E 001°17'4817.2
2018-Apr-12 08:42N 50°19' E 000°10'417.8
2018-Apr-12 08:30N 50°18' E 000°04'918.0
2018-Apr-12 08:00N 50°18' W 000°10'918.4
2018-Apr-12 07:30N 50°16' W 000°24'918.7
2018-Apr-12 07:01N 50°13' W 000°38'919.0
2018-Apr-12 06:30N 50°11' W 000°52'1019.3
2018-Apr-12 06:00N 50°08' W 001°06'1019.4
2018-Apr-12 05:31N 50°06' W 001°21'1019.2
2018-Apr-12 05:01N 50°03' W 001°35'1019.2
2018-Apr-12 04:30N 50°00' W 001°50'1018.8
2018-Apr-12 03:59N 49°58' W 002°05'2217.6
2018-Apr-12 02:43N 49°52' W 002°38'617.0
2018-Apr-12 02:23N 49°51' W 002°46'1416.5
2018-Apr-12 01:33N 49°50' W 003°08'116.4
2018-Apr-12 01:30N 49°50' W 003°09'816.4
2018-Apr-12 01:00N 49°50' W 003°22'916.2
2018-Apr-12 00:27N 49°51' W 003°36'716.0
2018-Apr-12 00:00N 49°51' W 003°47'2315.8
2018-Apr-11 22:32N 49°51' W 004°23'015.7
2018-Apr-11 22:30N 49°51' W 004°23'7113.3
2018-Apr-11 17:12N 50°23' W 006°02'10918.0
2018-Apr-11 11:10N 52°11' W 005°49'519.5
2018-Apr-11 10:53N 52°17' W 005°48'719.5
2018-Apr-11 10:31N 52°24' W 005°49'2319.6
2018-Apr-11 09:20N 52°47' W 005°50'719.3
2018-Apr-11 08:59N 52°54' W 005°52'919.0
2018-Apr-11 08:30N 53°03' W 005°54'918.5
2018-Apr-11 08:00N 53°11' W 005°59'816.2
2018-Apr-11 07:29N 53°19' W 006°04'4 8.6
2018-Apr-11 07:00N 53°21' W 006°11'1 2.2
2018-Apr-11 06:30N 53°21' W 006°12'0 0.0
2018-Apr-11 05:53N 53°21' W 006°12'0 0.0
2018-Apr-11 05:20N 53°21' W 006°13'0 0.0
2018-Apr-11 04:47N 53°21' W 006°12'0 0.0
2018-Apr-11 04:11N 53°21' W 006°13'0 0.0
2018-Apr-11 03:44N 53°21' W 006°12'0 0.0
2018-Apr-11 03:29N 53°21' W 006°12'0 0.0
2018-Apr-11 02:59N 53°21' W 006°13'0 0.0
2018-Apr-11 02:29N 53°21' W 006°12'0 0.0
2018-Apr-11 01:56N 53°21' W 006°12'0 0.0
2018-Apr-11 01:29N 53°21' W 006°12'0 0.0
2018-Apr-11 00:56N 53°21' W 006°13'0 0.0
2018-Apr-11 00:20N 53°21' W 006°12'0 0.0
2018-Apr-10 23:50N 53°21' W 006°12'0 0.0
2018-Apr-10 23:17N 53°21' W 006°13'0 0.0
2018-Apr-10 22:41N 53°21' W 006°12'0 0.0
2018-Apr-10 22:29N 53°21' W 006°12'0 0.0
2018-Apr-10 21:56N 53°21' W 006°12'0 0.0
2018-Apr-10 21:29N 53°21' W 006°12'0 0.0
2018-Apr-10 20:56N 53°21' W 006°12'0 0.0
2018-Apr-10 20:26N 53°21' W 006°12'0 0.0
2018-Apr-10 19:53N 53°21' W 006°12'0 0.0
2018-Apr-10 19:20N 53°21' W 006°13'0 0.0
2018-Apr-10 18:44N 53°21' W 006°12'0 0.0
2018-Apr-10 18:10N 53°21' W 006°13'0 0.0
2018-Apr-10 17:58N 53°21' W 006°12'0 0.0
2018-Apr-10 17:28N 53°21' W 006°13'0 0.0
2018-Apr-10 16:58N 53°21' W 006°12'  

Dump ship's entire track history